createdAt,value
2017-08-02T00:00:14.306Z,5.20
2017-08-02T00:02:41.769Z,3.00
2017-08-02T00:05:09.251Z,3.07
2017-08-02T00:07:36.702Z,3.33
2017-08-02T00:10:04.170Z,5.37
2017-08-02T00:12:32.542Z,3.23
2017-08-02T00:15:00.018Z,3.73
2017-08-02T00:17:27.475Z,2.93
2017-08-02T00:19:55.002Z,3.60
2017-08-02T00:22:22.478Z,3.10
2017-08-02T00:24:49.940Z,3.50
2017-08-02T00:27:17.393Z,2.70
2017-08-02T00:29:44.860Z,3.63
2017-08-02T00:32:12.389Z,3.00
2017-08-02T00:34:39.848Z,4.13
2017-08-02T00:37:07.318Z,9.73
2017-08-02T00:39:34.778Z,3.27
2017-08-02T00:42:02.237Z,3.00
2017-08-02T00:44:29.697Z,3.33
2017-08-02T00:46:57.173Z,2.97
2017-08-02T00:49:25.449Z,3.07
2017-08-02T00:51:52.908Z,4.10
2017-08-02T00:54:20.378Z,3.53
2017-08-02T00:56:47.863Z,3.40
2017-08-02T00:59:15.421Z,3.40
2017-08-02T01:01:42.881Z,3.47
2017-08-02T01:04:10.346Z,3.93
2017-08-02T01:06:37.797Z,3.43
2017-08-02T01:09:05.278Z,3.83
2017-08-02T01:11:32.743Z,5.03
2017-08-02T01:14:00.219Z,5.10
2017-08-02T01:16:27.673Z,3.50
2017-08-02T01:18:55.142Z,3.00
2017-08-02T01:21:22.607Z,3.30
2017-08-02T01:23:50.078Z,3.07
2017-08-02T01:26:17.581Z,3.20
2017-08-02T01:28:45.044Z,3.40
2017-08-02T01:31:12.517Z,3.20
2017-08-02T01:33:39.967Z,3.50
2017-08-02T01:36:07.453Z,3.17
2017-08-02T01:38:34.922Z,3.37
2017-08-02T01:41:02.403Z,3.00
2017-08-02T01:43:29.878Z,4.43
2017-08-02T01:45:57.330Z,3.57
2017-08-02T01:48:24.799Z,3.70
2017-08-02T01:50:52.255Z,2.80
2017-08-02T01:53:19.725Z,2.80
2017-08-02T01:55:47.183Z,3.33
2017-08-02T01:58:14.639Z,3.33
2017-08-02T02:00:42.102Z,2.90
2017-08-02T02:03:09.590Z,2.87
2017-08-02T02:05:38.552Z,2.93
2017-08-02T02:08:06.033Z,6.50
2017-08-02T02:10:33.518Z,4.57
2017-08-02T02:13:00.978Z,2.60
2017-08-02T02:15:28.454Z,3.10
2017-08-02T02:17:56.230Z,3.10
2017-08-02T02:20:23.696Z,3.50
2017-08-02T02:22:51.150Z,2.97
2017-08-02T02:25:18.604Z,2.60
2017-08-02T02:27:46.102Z,2.83
2017-08-02T02:30:13.565Z,2.73
2017-08-02T02:32:41.031Z,4.97
2017-08-02T02:35:08.494Z,2.77
2017-08-02T02:37:35.968Z,2.87
2017-08-02T02:40:03.438Z,3.23
2017-08-02T02:42:30.984Z,3.47
2017-08-02T02:44:58.444Z,2.90
2017-08-02T02:47:25.940Z,2.97
2017-08-02T02:49:53.407Z,3.57
2017-08-02T02:52:20.858Z,2.87
2017-08-02T02:54:48.378Z,4.60
2017-08-02T02:57:15.878Z,4.80
2017-08-02T02:59:43.345Z,3.43
2017-08-02T03:02:10.890Z,3.13
2017-08-02T03:04:38.367Z,5.70
2017-08-02T03:07:05.834Z,2.70
2017-08-02T03:09:33.301Z,2.60
2017-08-02T03:12:00.767Z,3.23
2017-08-02T03:14:28.234Z,2.80
2017-08-02T03:16:55.745Z,3.43
2017-08-02T03:19:23.224Z,2.60
2017-08-02T03:21:50.719Z,6.83
2017-08-02T03:24:18.202Z,2.60
2017-08-02T03:26:45.681Z,2.57
2017-08-02T03:29:13.153Z,3.00
2017-08-02T03:31:40.629Z,3.60
2017-08-02T03:34:08.155Z,3.40
2017-08-02T03:36:35.634Z,3.50
2017-08-02T03:39:03.156Z,2.83
2017-08-02T03:41:30.640Z,3.53
2017-08-02T03:43:58.116Z,2.97
2017-08-02T03:46:26.410Z,4.03
2017-08-02T03:48:54.643Z,3.30
2017-08-02T03:51:22.106Z,4.83
2017-08-02T03:53:49.599Z,3.80
2017-08-02T03:56:17.836Z,3.47
2017-08-02T03:58:45.295Z,3.20
2017-08-02T04:01:12.766Z,5.60
2017-08-02T04:03:40.259Z,3.03
2017-08-02T04:06:07.746Z,2.90
2017-08-02T04:08:35.278Z,3.50
2017-08-02T04:11:02.788Z,2.67
2017-08-02T04:13:30.267Z,3.50
2017-08-02T04:15:57.718Z,2.60
2017-08-02T04:18:25.205Z,3.20
2017-08-02T04:20:52.683Z,3.17
2017-08-02T04:23:20.137Z,3.10
2017-08-02T04:25:47.617Z,3.63
2017-08-02T04:28:15.101Z,3.57
2017-08-02T04:30:42.591Z,3.30
2017-08-02T04:33:10.066Z,3.40
2017-08-02T04:35:37.537Z,2.93
2017-08-02T04:38:05.029Z,3.00
2017-08-02T04:40:32.524Z,2.90
2017-08-02T04:42:59.993Z,3.37
2017-08-02T04:45:27.474Z,3.33
2017-08-02T04:47:54.967Z,3.10
2017-08-02T04:50:22.466Z,3.13
2017-08-02T04:52:49.965Z,7.13
2017-08-02T04:55:17.433Z,3.13
2017-08-02T04:57:44.911Z,3.43
2017-08-02T05:00:12.381Z,4.70
2017-08-02T05:02:39.847Z,3.40
2017-08-02T05:05:07.313Z,2.97
2017-08-02T05:07:34.817Z,3.47
2017-08-02T05:10:02.318Z,3.07
2017-08-02T05:12:29.793Z,3.20
2017-08-02T05:14:57.265Z,3.20
2017-08-02T05:17:24.737Z,3.33
2017-08-02T05:19:52.214Z,3.20
2017-08-02T05:22:19.673Z,5.37
2017-08-02T05:24:47.152Z,3.57
2017-08-02T05:27:14.616Z,3.23
2017-08-02T05:29:42.100Z,3.90
2017-08-02T05:32:09.565Z,3.57
2017-08-02T05:34:37.042Z,3.30
2017-08-02T05:37:04.520Z,3.23
2017-08-02T05:39:31.999Z,3.53
2017-08-02T05:41:59.469Z,5.00
2017-08-02T05:44:26.938Z,3.10
2017-08-02T05:46:54.410Z,2.80
2017-08-02T05:49:21.887Z,2.93
2017-08-02T05:51:49.343Z,3.70
2017-08-02T05:54:16.823Z,4.80
2017-08-02T05:56:44.278Z,3.33
2017-08-02T05:59:11.766Z,3.20
2017-08-02T06:01:39.234Z,3.83
2017-08-02T06:04:06.695Z,3.17
2017-08-02T06:06:34.198Z,4.00
2017-08-02T06:09:01.662Z,4.27
2017-08-02T06:11:29.159Z,3.27
2017-08-02T06:13:56.625Z,3.40
2017-08-02T06:16:24.099Z,3.57
2017-08-02T06:18:51.556Z,3.10
2017-08-02T06:21:19.023Z,3.43
2017-08-02T06:23:46.474Z,3.70
2017-08-02T06:26:13.920Z,3.30
2017-08-02T06:28:41.415Z,7.60
2017-08-02T06:31:08.879Z,2.70
2017-08-02T06:33:37.166Z,3.20
2017-08-02T06:36:04.611Z,3.30
2017-08-02T06:38:32.099Z,3.50
2017-08-02T06:40:59.575Z,3.83
2017-08-02T06:43:27.061Z,3.93
2017-08-02T06:45:54.524Z,3.80
2017-08-02T06:48:21.995Z,3.60
2017-08-02T06:50:49.461Z,3.87
2017-08-02T06:53:16.994Z,3.47
2017-08-02T06:55:44.445Z,3.73
2017-08-02T06:58:11.934Z,3.47
2017-08-02T07:00:39.394Z,3.40
2017-08-02T07:03:06.863Z,3.30
2017-08-02T07:05:34.338Z,4.20
2017-08-02T07:08:01.805Z,4.60
2017-08-02T07:10:29.281Z,3.80
2017-08-02T07:12:56.739Z,4.40
2017-08-02T07:15:24.216Z,3.73
2017-08-02T07:17:51.664Z,4.07
2017-08-02T07:20:19.129Z,6.33
2017-08-02T07:22:46.590Z,3.87
2017-08-02T07:25:14.050Z,3.00
2017-08-02T07:27:41.510Z,3.53
2017-08-02T07:30:08.980Z,3.17
2017-08-02T07:32:36.452Z,2.97
2017-08-02T07:35:03.926Z,3.77
2017-08-02T07:37:31.387Z,3.80
2017-08-02T07:39:58.837Z,2.97
2017-08-02T07:42:27.074Z,4.30
2017-08-02T07:44:54.521Z,3.57
2017-08-02T07:47:21.991Z,3.53
2017-08-02T07:49:49.473Z,3.73
2017-08-02T07:52:16.945Z,8.50
2017-08-02T07:54:44.414Z,5.43
2017-08-02T07:57:11.890Z,8.60
2017-08-02T07:59:39.353Z,9.83
2017-08-02T08:02:06.820Z,17.07
2017-08-02T08:04:34.284Z,16.47
2017-08-02T08:07:01.756Z,17.40
2017-08-02T08:09:29.226Z,19.87
2017-08-02T08:11:56.694Z,19.13
2017-08-02T08:14:24.943Z,19.20
2017-08-02T08:16:52.396Z,12.47
2017-08-02T08:19:19.875Z,11.17
2017-08-02T08:21:47.337Z,10.67
2017-08-02T08:24:14.811Z,13.23
2017-08-02T08:26:42.276Z,12.60
2017-08-02T08:29:09.752Z,13.60
2017-08-02T08:31:37.213Z,10.80
2017-08-02T08:34:04.697Z,12.73
2017-08-02T08:36:32.168Z,11.80
2017-08-02T08:38:59.621Z,9.27
2017-08-02T08:41:27.086Z,11.33
2017-08-02T08:43:54.569Z,7.73
2017-08-02T08:46:22.046Z,8.83
2017-08-02T08:48:49.506Z,12.80
2017-08-02T08:51:16.977Z,6.87
2017-08-02T08:53:44.442Z,8.83
2017-08-02T08:56:11.910Z,10.23
2017-08-02T08:58:39.381Z,6.50
2017-08-02T09:01:06.852Z,11.30
2017-08-02T09:03:34.307Z,9.53
2017-08-02T09:06:02.550Z,8.10
2017-08-02T09:08:30.018Z,8.97
2017-08-02T09:10:57.489Z,7.53
2017-08-02T09:13:24.953Z,11.90
2017-08-02T09:15:52.446Z,6.33
2017-08-02T09:18:19.905Z,11.47
2017-08-02T09:20:47.365Z,9.40
2017-08-02T09:23:14.839Z,6.90
2017-08-02T09:25:42.302Z,4.47
2017-08-02T09:28:09.780Z,6.43
2017-08-02T09:30:37.246Z,9.23
2017-08-02T09:33:04.719Z,6.20
2017-08-02T09:35:32.210Z,4.30
2017-08-02T09:37:59.693Z,6.27
2017-08-02T09:40:27.152Z,4.77
2017-08-02T09:42:54.623Z,6.20
2017-08-02T09:45:22.085Z,4.80
2017-08-02T09:47:49.549Z,5.80
2017-08-02T09:50:17.022Z,5.57
2017-08-02T09:52:44.478Z,5.47
2017-08-02T09:55:11.940Z,8.30
2017-08-02T09:57:40.185Z,6.53
2017-08-02T10:00:07.697Z,10.37
2017-08-02T10:02:35.166Z,6.57
2017-08-02T10:05:02.668Z,5.13
2017-08-02T10:07:30.160Z,4.20
2017-08-02T10:09:57.664Z,7.37
2017-08-02T10:12:26.580Z,4.70
2017-08-02T10:14:54.113Z,4.67
2017-08-02T10:17:21.594Z,2.90
2017-08-02T10:19:49.094Z,6.30
2017-08-02T10:22:16.585Z,7.87
2017-08-02T10:24:44.115Z,3.87
2017-08-02T10:27:11.598Z,2.90
2017-08-02T10:29:39.083Z,5.20
2017-08-02T10:32:06.556Z,4.33
2017-08-02T10:34:34.033Z,4.50
2017-08-02T10:37:01.495Z,4.77
2017-08-02T10:39:29.728Z,4.67
2017-08-02T10:41:57.192Z,9.37
2017-08-02T10:44:24.673Z,8.83
2017-08-02T10:46:52.162Z,4.53
2017-08-02T10:49:19.633Z,4.17
2017-08-02T10:51:47.096Z,3.23
2017-08-02T10:54:14.565Z,4.90
2017-08-02T10:56:42.032Z,5.60
2017-08-02T10:59:09.499Z,4.50
2017-08-02T11:01:36.973Z,5.00
2017-08-02T11:04:04.482Z,6.00
2017-08-02T11:06:31.942Z,4.57
2017-08-02T11:08:59.454Z,8.83
2017-08-02T11:11:26.925Z,5.50
2017-08-02T11:13:54.385Z,3.73
2017-08-02T11:16:21.889Z,2.83
2017-08-02T11:18:49.415Z,4.23
2017-08-02T11:21:16.957Z,4.30
2017-08-02T11:23:44.443Z,3.60
2017-08-02T11:26:11.946Z,3.00
2017-08-02T11:28:39.420Z,2.80
2017-08-02T11:31:06.931Z,3.80
2017-08-02T11:33:34.443Z,3.87
2017-08-02T11:36:01.925Z,5.27
2017-08-02T11:38:29.401Z,6.63
2017-08-02T11:40:56.898Z,5.23
2017-08-02T11:43:24.427Z,5.93
2017-08-02T11:45:51.906Z,3.87
2017-08-02T11:48:19.400Z,2.90
2017-08-02T11:50:46.884Z,7.90
2017-08-02T11:53:14.386Z,3.43
2017-08-02T11:55:41.885Z,2.80
2017-08-02T11:58:09.343Z,3.50
2017-08-02T12:00:36.804Z,5.23
2017-08-02T12:03:04.276Z,2.93
2017-08-02T12:05:31.741Z,2.97
2017-08-02T12:07:59.210Z,3.43
2017-08-02T12:10:26.715Z,3.53
2017-08-02T12:12:54.182Z,3.80
2017-08-02T12:15:21.653Z,3.93
2017-08-02T12:17:49.147Z,3.10
2017-08-02T12:20:16.605Z,5.23
2017-08-02T12:22:44.079Z,2.70
2017-08-02T12:25:11.553Z,5.07
2017-08-02T12:27:39.010Z,4.20
2017-08-02T12:30:06.502Z,3.13
2017-08-02T12:32:33.977Z,2.63
2017-08-02T12:35:01.439Z,3.00
2017-08-02T12:37:28.922Z,3.47
2017-08-02T12:39:56.416Z,3.00
2017-08-02T12:42:23.861Z,4.63
2017-08-02T12:44:51.338Z,2.60
2017-08-02T12:47:18.788Z,2.80
2017-08-02T12:49:46.238Z,3.23
2017-08-02T12:52:13.708Z,3.13
2017-08-02T12:54:41.189Z,2.93
2017-08-02T12:57:08.673Z,4.37
2017-08-02T12:59:36.121Z,3.20
2017-08-02T13:02:03.600Z,2.87
2017-08-02T13:04:31.067Z,2.83
2017-08-02T13:06:58.550Z,3.00
2017-08-02T13:09:26.008Z,2.40
2017-08-02T13:11:53.488Z,3.00
2017-08-02T13:14:20.946Z,3.10
2017-08-02T13:16:48.413Z,3.63
2017-08-02T13:19:15.879Z,3.00
2017-08-02T13:21:43.350Z,3.73
2017-08-02T13:24:10.812Z,2.93
2017-08-02T13:26:38.270Z,3.40
2017-08-02T13:29:05.747Z,2.80
2017-08-02T13:31:33.239Z,2.90
2017-08-02T13:34:00.715Z,3.03
2017-08-02T13:36:28.187Z,3.27
2017-08-02T13:38:55.661Z,2.93
2017-08-02T13:41:23.120Z,2.87
2017-08-02T13:43:50.601Z,2.67
2017-08-02T13:46:18.128Z,3.17
2017-08-02T13:48:45.649Z,3.23
2017-08-02T13:51:13.118Z,2.50
2017-08-02T13:53:40.622Z,2.70
2017-08-02T13:56:08.122Z,3.00
2017-08-02T13:58:35.603Z,2.67
2017-08-02T14:01:03.111Z,3.53
2017-08-02T14:03:30.573Z,2.90
2017-08-02T14:05:58.038Z,3.10
2017-08-02T14:08:25.494Z,2.80
2017-08-02T14:10:52.965Z,3.80
2017-08-02T14:13:20.439Z,2.47
2017-08-02T14:15:47.914Z,2.90
2017-08-02T14:18:15.387Z,3.13
2017-08-02T14:20:42.840Z,2.40
2017-08-02T14:23:10.309Z,3.10
2017-08-02T14:25:40.596Z,2.73
2017-08-02T14:28:08.085Z,2.83
2017-08-02T14:30:35.573Z,3.07
2017-08-02T14:33:03.070Z,3.13
2017-08-02T14:35:30.551Z,2.57
2017-08-02T14:37:58.076Z,2.70
2017-08-02T14:40:25.541Z,2.63
2017-08-02T14:42:53.033Z,2.67
2017-08-02T14:45:20.488Z,2.93
2017-08-02T14:47:47.933Z,2.97
2017-08-02T14:50:15.588Z,2.73
2017-08-02T14:52:43.070Z,2.67
2017-08-02T14:55:10.537Z,2.63
2017-08-02T14:57:38.042Z,2.80
2017-08-02T15:00:05.516Z,3.07
2017-08-02T15:02:33.026Z,2.53
2017-08-02T15:05:00.564Z,2.70
2017-08-02T15:07:28.030Z,2.80
2017-08-02T15:09:55.511Z,3.20
2017-08-02T15:12:22.974Z,2.70
2017-08-02T15:14:50.469Z,2.80
2017-08-02T15:17:17.941Z,2.97
2017-08-02T15:19:45.425Z,2.60
2017-08-02T15:22:12.884Z,2.80
2017-08-02T15:24:40.368Z,2.90
2017-08-02T15:27:07.853Z,2.97
2017-08-02T15:29:35.317Z,2.80
2017-08-02T15:32:02.794Z,2.87
2017-08-02T15:34:30.246Z,2.50
2017-08-02T15:36:57.707Z,2.73
2017-08-02T15:39:25.181Z,2.90
2017-08-02T15:41:52.659Z,2.40
2017-08-02T15:44:20.125Z,2.90
2017-08-02T15:46:47.618Z,3.10
2017-08-02T15:49:15.072Z,3.10
2017-08-02T15:51:42.542Z,2.80
2017-08-02T15:54:10.005Z,2.50
2017-08-02T15:56:37.464Z,2.90
2017-08-02T15:59:04.943Z,2.83
2017-08-02T16:01:32.410Z,2.63
2017-08-02T16:03:59.883Z,2.57
2017-08-02T16:06:27.343Z,2.50
2017-08-02T16:08:54.831Z,2.67
2017-08-02T16:11:22.298Z,2.93
2017-08-02T16:13:49.786Z,2.50
2017-08-02T16:16:17.260Z,2.97
2017-08-02T16:18:44.800Z,3.00
2017-08-02T16:21:12.271Z,6.13
2017-08-02T16:23:39.752Z,2.60
2017-08-02T16:26:07.225Z,2.70
2017-08-02T16:28:34.716Z,2.50
2017-08-02T16:31:02.189Z,2.50
2017-08-02T16:33:29.669Z,2.50
2017-08-02T16:35:57.152Z,2.50
2017-08-02T16:38:24.638Z,2.53
2017-08-02T16:40:52.106Z,2.40
2017-08-02T16:43:19.590Z,2.50
2017-08-02T16:45:47.069Z,2.70
2017-08-02T16:48:14.530Z,2.80
2017-08-02T16:50:42.015Z,2.73
2017-08-02T16:53:09.486Z,2.80
2017-08-02T16:55:36.981Z,2.70
2017-08-02T16:58:04.463Z,2.57
2017-08-02T17:00:31.968Z,3.00
2017-08-02T17:02:59.434Z,2.80
2017-08-02T17:05:26.919Z,2.67
2017-08-02T17:07:54.388Z,2.70
2017-08-02T17:10:21.881Z,2.73
2017-08-02T17:12:49.350Z,2.77
2017-08-02T17:15:16.826Z,2.97
2017-08-02T17:17:44.305Z,2.40
2017-08-02T17:20:11.761Z,2.40
2017-08-02T17:22:39.220Z,2.50
2017-08-02T17:25:06.686Z,2.80
2017-08-02T17:27:34.172Z,3.00
2017-08-02T17:30:01.615Z,2.57
2017-08-02T17:32:29.097Z,2.80
2017-08-02T17:34:56.565Z,2.57
2017-08-02T17:37:24.034Z,2.70
2017-08-02T17:39:51.510Z,2.60
2017-08-02T17:42:18.994Z,2.33
2017-08-02T17:44:46.444Z,2.23
2017-08-02T17:47:13.912Z,2.00
2017-08-02T17:49:41.385Z,4.20
2017-08-02T17:52:08.846Z,1.73
2017-08-02T17:54:36.321Z,4.53
2017-08-02T17:57:03.782Z,3.73
2017-08-02T17:59:31.245Z,35.40
2017-08-02T18:01:58.710Z,12.17
2017-08-02T18:04:26.169Z,6.00
2017-08-02T18:06:53.672Z,4.07
2017-08-02T18:09:21.141Z,3.13
2017-08-02T18:11:48.601Z,10.77
2017-08-02T18:14:16.041Z,6.23
2017-08-02T18:16:43.506Z,6.10
2017-08-02T18:19:10.957Z,3.03
2017-08-02T18:21:38.420Z,8.60
2017-08-02T18:24:05.877Z,3.03
2017-08-02T18:26:33.324Z,4.63
2017-08-02T18:29:00.783Z,3.83
2017-08-02T18:31:28.271Z,2.63
2017-08-02T18:33:55.722Z,2.50
2017-08-02T18:36:23.170Z,6.30
2017-08-02T18:38:50.656Z,7.63
2017-08-02T18:41:18.100Z,4.17
2017-08-02T18:43:45.571Z,3.17
2017-08-02T18:46:13.044Z,4.67
2017-08-02T18:48:40.519Z,7.80
2017-08-02T18:51:07.969Z,13.10
2017-08-02T18:53:35.457Z,5.40
2017-08-02T18:56:02.918Z,4.67
2017-08-02T18:58:30.387Z,3.77
2017-08-02T19:00:57.859Z,2.67
2017-08-02T19:03:25.314Z,3.90
2017-08-02T19:05:52.783Z,3.20
2017-08-02T19:08:20.232Z,1.80
2017-08-02T19:10:47.705Z,3.40
2017-08-02T19:13:15.190Z,2.50
2017-08-02T19:15:42.667Z,2.77
2017-08-02T19:18:10.129Z,2.40
2017-08-02T19:20:37.611Z,3.93
2017-08-02T19:23:05.069Z,4.37
2017-08-02T19:25:32.535Z,3.10
2017-08-02T19:27:59.992Z,4.20
2017-08-02T19:30:27.465Z,2.97
2017-08-02T19:32:54.928Z,2.70
2017-08-02T19:35:22.388Z,2.70
2017-08-02T19:37:49.880Z,3.07
2017-08-02T19:40:17.375Z,5.50
2017-08-02T19:42:44.850Z,4.43
2017-08-02T19:45:12.308Z,4.47
2017-08-02T19:47:39.775Z,3.00
2017-08-02T19:50:07.239Z,3.50
2017-08-02T19:52:34.729Z,5.10
2017-08-02T19:55:02.186Z,2.90
2017-08-02T19:57:29.723Z,3.27
2017-08-02T19:59:57.173Z,3.43
2017-08-02T20:02:24.627Z,7.93
2017-08-02T20:04:52.109Z,6.37
2017-08-02T20:07:19.566Z,3.33
2017-08-02T20:09:47.084Z,5.03
2017-08-02T20:12:14.545Z,4.67
2017-08-02T20:14:42.021Z,3.17
2017-08-02T20:17:09.479Z,4.33
2017-08-02T20:19:36.975Z,4.87
2017-08-02T20:22:04.443Z,3.83
2017-08-02T20:24:31.921Z,3.90
2017-08-02T20:26:59.375Z,6.07
2017-08-02T20:29:26.819Z,4.43
2017-08-02T20:31:54.293Z,3.80
2017-08-02T20:34:21.749Z,3.90
2017-08-02T20:36:49.269Z,4.67
2017-08-02T20:39:16.728Z,4.80
2017-08-02T20:41:44.197Z,4.30
2017-08-02T20:44:11.653Z,3.20
2017-08-02T20:46:39.124Z,4.67
2017-08-02T20:49:06.580Z,4.43
2017-08-02T20:51:34.088Z,6.50
2017-08-02T20:54:01.551Z,5.00
2017-08-02T20:56:29.022Z,4.10
2017-08-02T20:58:56.488Z,3.43
2017-08-02T21:01:23.953Z,3.23
2017-08-02T21:03:51.406Z,4.60
2017-08-02T21:06:18.863Z,3.77
2017-08-02T21:08:46.342Z,6.17
2017-08-02T21:11:13.802Z,4.67
2017-08-02T21:13:41.274Z,4.70
2017-08-02T21:16:08.746Z,4.50
2017-08-02T21:18:36.218Z,5.33
2017-08-02T21:21:03.696Z,10.30
2017-08-02T21:23:31.184Z,16.90
2017-08-02T21:25:58.643Z,11.83
2017-08-02T21:28:26.129Z,10.67
2017-08-02T21:30:53.579Z,7.43
2017-08-02T21:33:21.034Z,16.80
2017-08-02T21:35:48.546Z,10.77
2017-08-02T21:38:16.028Z,14.40
2017-08-02T21:40:43.525Z,11.83
2017-08-02T21:43:10.987Z,11.50
2017-08-02T21:45:38.455Z,10.63
2017-08-02T21:48:05.940Z,7.53
2017-08-02T21:50:33.405Z,18.20
2017-08-02T21:53:00.862Z,9.63
2017-08-02T21:55:28.333Z,8.70
2017-08-02T21:57:55.794Z,3.87
2017-08-02T22:00:23.272Z,4.20
2017-08-02T22:02:50.732Z,3.87
2017-08-02T22:05:18.206Z,4.07
2017-08-02T22:07:45.663Z,6.00
2017-08-02T22:10:13.155Z,3.43
2017-08-02T22:12:40.621Z,5.50
2017-08-02T22:15:08.077Z,4.00
2017-08-02T22:17:35.537Z,5.33
2017-08-02T22:20:02.994Z,5.70
2017-08-02T22:22:30.475Z,3.40
2017-08-02T22:24:57.992Z,3.50
2017-08-02T22:27:26.213Z,3.53
2017-08-02T22:29:53.680Z,3.07
2017-08-02T22:32:21.154Z,3.40
2017-08-02T22:34:48.620Z,7.07
2017-08-02T22:37:16.086Z,6.20
2017-08-02T22:39:43.567Z,3.73
2017-08-02T22:42:11.057Z,3.60
2017-08-02T22:44:38.531Z,3.30
2017-08-02T22:47:05.984Z,4.63
2017-08-02T22:49:33.479Z,3.60
2017-08-02T22:52:01.700Z,4.03
2017-08-02T22:54:29.180Z,3.33
2017-08-02T22:56:56.639Z,3.90
2017-08-02T22:59:24.118Z,3.30
2017-08-02T23:01:51.576Z,7.47
2017-08-02T23:04:19.066Z,3.97
2017-08-02T23:06:46.524Z,4.20
2017-08-02T23:09:14.038Z,3.87
2017-08-02T23:11:41.493Z,3.73
2017-08-02T23:14:08.975Z,3.73
2017-08-02T23:16:36.442Z,3.70
2017-08-02T23:19:03.909Z,3.70
2017-08-02T23:21:31.391Z,2.97
2017-08-02T23:23:58.869Z,4.97
2017-08-02T23:26:26.332Z,3.13
2017-08-02T23:28:53.773Z,4.40
2017-08-02T23:31:21.247Z,6.17
2017-08-02T23:33:48.711Z,3.40
2017-08-02T23:36:16.176Z,7.50
2017-08-02T23:38:43.629Z,3.97
2017-08-02T23:41:11.099Z,3.43
2017-08-02T23:43:38.565Z,4.77
2017-08-02T23:46:06.032Z,3.30
2017-08-02T23:48:34.265Z,3.50
2017-08-02T23:51:01.738Z,3.67
2017-08-02T23:53:29.242Z,3.90
2017-08-02T23:55:56.714Z,3.70
2017-08-02T23:58:24.195Z,8.60
